createdAt,value
2022-09-01T00:00:01.341Z,3.00
2022-09-01T00:02:29.249Z,2.87
2022-09-01T00:04:58.999Z,3.08
2022-09-01T00:07:32.706Z,3.30
2022-09-01T00:10:00.426Z,3.22
2022-09-01T00:12:28.204Z,3.25
2022-09-01T00:14:55.635Z,3.80
2022-09-01T00:17:22.603Z,3.37
2022-09-01T00:19:49.623Z,3.37
2022-09-01T00:22:16.808Z,3.67
2022-09-01T00:24:43.752Z,3.62
2022-09-01T00:27:10.704Z,3.78
2022-09-01T00:29:38.027Z,3.80
2022-09-01T00:32:10.446Z,3.90
2022-09-01T00:34:37.418Z,3.67
2022-09-01T00:37:04.495Z,4.03
2022-09-01T00:39:31.520Z,3.72
2022-09-01T00:41:59.492Z,3.97
2022-09-01T00:44:29.569Z,4.10
2022-09-01T00:46:59.716Z,3.80
2022-09-01T00:49:31.395Z,3.37
2022-09-01T00:52:06.023Z,4.20
2022-09-01T00:54:40.207Z,4.12
2022-09-01T00:57:09.197Z,4.15
2022-09-01T00:59:39.224Z,3.53
2022-09-01T01:02:06.453Z,3.62
2022-09-01T01:04:33.482Z,4.35
2022-09-01T01:07:03.216Z,5.12
2022-09-01T01:09:33.822Z,4.65
2022-09-01T01:12:03.754Z,5.20
2022-09-01T01:14:32.532Z,4.93
2022-09-01T01:17:00.934Z,5.50
2022-09-01T01:20:04.971Z,4.90
2022-09-01T01:23:02.557Z,4.68
2022-09-01T01:25:50.953Z,4.00
2022-09-01T01:28:22.570Z,3.80
2022-09-01T01:31:01.945Z,4.90
2022-09-01T01:33:40.857Z,4.50
2022-09-01T01:36:14.744Z,4.37
2022-09-01T01:38:47.055Z,4.00
2022-09-01T01:41:15.048Z,4.10
2022-09-01T01:43:42.476Z,4.62
2022-09-01T01:46:11.209Z,5.47
2022-09-01T01:48:40.739Z,4.95
2022-09-01T01:51:09.082Z,5.50
2022-09-01T01:53:38.223Z,5.07
2022-09-01T01:56:06.413Z,5.25
2022-09-01T01:58:35.076Z,6.10
2022-09-01T02:01:03.873Z,5.82
2022-09-01T02:03:38.692Z,5.30
2022-09-01T02:06:10.401Z,4.78
2022-09-01T02:08:38.431Z,4.72
2022-09-01T02:11:06.483Z,4.72
2022-09-01T02:13:34.326Z,4.18
2022-09-01T02:16:07.947Z,4.55
2022-09-01T02:18:37.768Z,4.10
2022-09-01T02:21:16.417Z,3.60
2022-09-01T02:23:47.907Z,3.40
2022-09-01T02:26:17.451Z,4.18
2022-09-01T02:28:54.692Z,3.97
2022-09-01T02:31:23.938Z,4.87
2022-09-01T02:33:51.148Z,4.35
2022-09-01T02:36:19.749Z,4.18
2022-09-01T02:38:53.188Z,3.25
2022-09-01T02:41:23.242Z,3.30
2022-09-01T02:43:51.017Z,3.40
2022-09-01T02:46:20.549Z,3.87
2022-09-01T02:48:51.728Z,4.25
2022-09-01T02:51:20.539Z,3.90
2022-09-01T02:53:49.937Z,3.40
2022-09-01T02:56:18.406Z,3.17
2022-09-01T02:58:46.530Z,3.50
2022-09-01T03:01:19.787Z,3.60
2022-09-01T03:03:48.524Z,3.62
2022-09-01T03:06:18.635Z,3.92
2022-09-01T03:08:46.100Z,3.60
2022-09-01T03:11:13.560Z,2.22
2022-09-01T03:13:41.480Z,2.90
2022-09-01T03:16:09.344Z,3.42
2022-09-01T03:18:37.119Z,3.30
2022-09-01T03:21:05.396Z,3.70
2022-09-01T03:23:34.171Z,3.28
2022-09-01T03:26:01.873Z,3.80
2022-09-01T03:28:29.236Z,3.10
2022-09-01T03:30:57.485Z,2.87
2022-09-01T03:33:25.809Z,3.47
2022-09-01T03:35:53.539Z,3.75
2022-09-01T03:38:23.181Z,3.03
2022-09-01T03:40:59.175Z,3.85
2022-09-01T03:43:35.854Z,3.95
2022-09-01T03:46:03.786Z,3.95
2022-09-01T03:48:32.240Z,3.65
2022-09-01T03:51:03.505Z,3.10
2022-09-01T03:53:33.123Z,3.42
2022-09-01T03:56:00.326Z,3.47
2022-09-01T03:58:27.824Z,3.40
2022-09-01T04:00:57.216Z,3.92
2022-09-01T04:03:28.499Z,3.22
2022-09-01T04:05:56.731Z,4.10
2022-09-01T04:08:32.740Z,3.28
2022-09-01T04:11:11.398Z,3.17
2022-09-01T04:13:41.152Z,3.60
2022-09-01T04:16:32.690Z,3.55
2022-09-01T04:19:00.674Z,3.90
2022-09-01T04:21:27.622Z,3.85
2022-09-01T04:23:58.240Z,3.65
2022-09-01T04:26:28.293Z,3.10
2022-09-01T04:28:56.096Z,3.42
2022-09-01T04:31:23.226Z,3.37
2022-09-01T04:33:55.726Z,3.45
2022-09-01T04:36:27.957Z,3.50
2022-09-01T04:38:57.847Z,3.60
2022-09-01T04:41:27.195Z,3.25
2022-09-01T04:43:57.155Z,3.58
2022-09-01T04:46:28.678Z,3.05
2022-09-01T04:48:57.831Z,3.10
2022-09-01T04:51:28.173Z,3.03
2022-09-01T04:53:57.654Z,2.22
2022-09-01T04:56:26.957Z,3.45
2022-09-01T04:58:57.172Z,3.05
2022-09-01T05:01:26.432Z,2.97
2022-09-01T05:04:01.565Z,3.20
2022-09-01T05:06:34.114Z,3.40
2022-09-01T05:09:01.009Z,3.58
2022-09-01T05:11:27.974Z,4.22
2022-09-01T05:13:57.910Z,3.67
2022-09-01T05:16:28.038Z,3.87
2022-09-01T05:18:57.249Z,3.22
2022-09-01T05:21:29.029Z,3.55
2022-09-01T05:23:58.224Z,3.47
2022-09-01T05:26:27.923Z,3.25
2022-09-01T05:28:58.779Z,3.00
2022-09-01T05:31:28.665Z,3.65
2022-09-01T05:33:58.397Z,3.67
2022-09-01T05:36:25.959Z,3.50
2022-09-01T05:38:52.885Z,4.15
2022-09-01T05:41:21.249Z,3.75
2022-09-01T05:43:56.388Z,3.40
2022-09-01T05:46:28.482Z,3.67
2022-09-01T05:48:56.252Z,4.10
2022-09-01T05:51:43.238Z,4.53
2022-09-01T05:54:12.467Z,4.97
2022-09-01T05:56:44.285Z,5.03
2022-09-01T05:59:28.328Z,4.43
2022-09-01T06:01:55.633Z,4.05
2022-09-01T06:04:25.780Z,3.95
2022-09-01T06:07:11.098Z,3.80
2022-09-01T06:09:41.760Z,3.53
2022-09-01T06:12:18.252Z,3.47
2022-09-01T06:14:47.342Z,3.05
2022-09-01T06:17:16.858Z,3.10
2022-09-01T06:19:44.292Z,2.90
2022-09-01T06:22:11.382Z,2.90
2022-09-01T06:24:40.124Z,2.50
2022-09-01T06:27:09.974Z,2.58
2022-09-01T06:29:40.075Z,2.03
2022-09-01T06:32:10.623Z,2.40
2022-09-01T06:34:42.689Z,2.20
2022-09-01T06:37:11.186Z,2.30
2022-09-01T06:39:38.439Z,2.20
2022-09-01T06:42:06.402Z,2.15
2022-09-01T06:44:33.856Z,1.87
2022-09-01T06:47:01.276Z,2.15
2022-09-01T06:49:34.919Z,2.10
2022-09-01T06:52:05.842Z,2.20
2022-09-01T06:54:34.874Z,2.00
2022-09-01T06:59:54.275Z,2.12
2022-09-01T07:02:27.202Z,1.85
2022-09-01T07:04:54.624Z,1.95
2022-09-01T07:10:25.726Z,2.15
2022-09-01T07:13:09.035Z,1.70
2022-09-01T07:18:28.416Z,2.15
2022-09-01T07:21:36.287Z,2.22
2022-09-01T07:23:47.250Z,2.30
2022-09-01T07:29:16.755Z,1.95
2022-09-01T07:31:52.198Z,2.30
2022-09-01T07:34:38.531Z,2.25
2022-09-01T07:39:53.790Z,2.15
2022-09-01T07:45:27.137Z,2.25
2022-09-01T07:47:55.059Z,2.30
2022-09-01T07:50:39.851Z,2.37
2022-09-01T07:53:09.480Z,2.17
2022-09-01T07:55:41.284Z,1.95
2022-09-01T07:58:09.137Z,1.92
2022-09-01T08:00:37.290Z,2.05
2022-09-01T08:03:04.264Z,2.17
2022-09-01T08:05:31.373Z,2.08
2022-09-01T08:07:58.300Z,1.77
2022-09-01T08:10:25.282Z,2.00
2022-09-01T08:12:59.782Z,2.05
2022-09-01T08:16:06.777Z,2.35
2022-09-01T08:18:14.993Z,1.90
2022-09-01T08:20:47.565Z,2.30
2022-09-01T08:23:18.617Z,1.92
2022-09-01T08:25:47.436Z,1.92
2022-09-01T08:28:15.670Z,1.90
2022-09-01T08:30:52.195Z,2.00
2022-09-01T08:35:48.205Z,2.20
2022-09-01T08:38:15.489Z,2.40
2022-09-01T08:40:43.484Z,2.30
2022-09-01T08:43:42.721Z,2.20
2022-09-01T08:46:28.247Z,2.53
2022-09-01T08:51:54.038Z,3.45
2022-09-01T08:54:32.999Z,3.28
2022-09-01T08:57:05.744Z,4.00
2022-09-01T08:59:32.749Z,4.37
2022-09-01T09:02:08.625Z,4.10
2022-09-01T09:04:49.435Z,4.75
2022-09-01T09:07:22.943Z,4.10
2022-09-01T09:10:10.868Z,4.80
2022-09-01T09:12:50.137Z,5.15
2022-09-01T09:15:46.011Z,4.12
2022-09-01T09:18:54.695Z,4.93
2022-09-01T09:21:30.251Z,5.25
2022-09-01T09:24:22.657Z,5.55
2022-09-01T09:26:59.045Z,4.62
2022-09-01T09:29:27.446Z,4.47
2022-09-01T09:32:22.590Z,5.03
2022-09-01T09:34:50.567Z,5.18
2022-09-01T09:37:27.559Z,4.30
2022-09-01T09:40:16.426Z,3.90
2022-09-01T09:42:57.346Z,4.15
2022-09-01T09:45:29.395Z,3.22
2022-09-01T09:47:57.566Z,3.90
2022-09-01T09:50:42.214Z,3.05
2022-09-01T09:53:12.007Z,3.42
2022-09-01T09:55:55.913Z,3.72
2022-09-01T09:58:28.637Z,2.87
2022-09-01T10:01:09.469Z,2.78
2022-09-01T10:03:44.547Z,2.60
2022-09-01T10:06:13.667Z,2.20
2022-09-01T10:08:45.650Z,2.20
2022-09-01T10:11:32.834Z,2.53
2022-09-01T10:14:02.787Z,2.67
2022-09-01T10:16:32.467Z,2.60
2022-09-01T10:19:01.209Z,2.78
2022-09-01T10:21:34.963Z,1.98
2022-09-01T10:24:21.191Z,2.28
2022-09-01T10:26:52.771Z,2.00
2022-09-01T10:29:34.789Z,2.00
2022-09-01T10:32:30.664Z,1.67
2022-09-01T10:34:51.307Z,1.50
2022-09-01T10:37:18.277Z,1.50
2022-09-01T10:40:13.183Z,1.80
2022-09-01T10:42:45.251Z,1.98
2022-09-01T10:45:33.344Z,1.90
2022-09-01T10:48:35.850Z,1.75
2022-09-01T10:51:18.227Z,1.45
2022-09-01T10:53:47.324Z,1.90
2022-09-01T10:56:28.421Z,2.12
2022-09-01T10:59:38.737Z,1.55
2022-09-01T11:02:27.598Z,1.60
2022-09-01T11:04:55.283Z,1.35
2022-09-01T11:07:50.084Z,1.30
2022-09-01T11:10:11.868Z,1.60
2022-09-01T11:13:23.452Z,1.50
2022-09-01T11:15:50.537Z,1.50
2022-09-01T11:18:27.406Z,1.52
2022-09-01T11:20:56.335Z,1.60
2022-09-01T11:23:29.592Z,1.50
2022-09-01T11:28:46.252Z,1.58
2022-09-01T11:31:21.391Z,1.75
2022-09-01T11:34:05.554Z,1.80
2022-09-01T11:36:37.313Z,1.77
2022-09-01T11:39:30.277Z,1.48
2022-09-01T11:42:06.300Z,1.70
2022-09-01T11:44:35.941Z,1.62
2022-09-01T11:47:12.089Z,1.60
2022-09-01T11:49:49.309Z,2.12
2022-09-01T11:52:18.430Z,2.10
2022-09-01T11:54:48.736Z,2.17
2022-09-01T11:57:18.326Z,2.00
2022-09-01T11:59:45.753Z,1.92
2022-09-01T12:02:25.346Z,1.73
2022-09-01T12:04:56.970Z,1.65
2022-09-01T12:07:38.712Z,1.90
2022-09-01T12:10:15.957Z,1.87
2022-09-01T12:12:42.938Z,1.60
2022-09-01T12:15:18.856Z,1.77
2022-09-01T12:17:49.686Z,1.50
2022-09-01T12:20:29.439Z,1.80
2022-09-01T12:22:59.106Z,1.58
2022-09-01T12:25:32.646Z,1.70
2022-09-01T12:28:04.173Z,1.98
2022-09-01T12:30:35.534Z,1.80
2022-09-01T12:35:54.058Z,1.73
2022-09-01T12:38:25.748Z,1.40
2022-09-01T12:40:55.245Z,1.60
2022-09-01T12:43:39.726Z,1.80
2022-09-01T12:46:09.420Z,1.62
2022-09-01T12:48:39.762Z,1.73
2022-09-01T12:51:30.889Z,1.40
2022-09-01T12:54:04.911Z,1.58
2022-09-01T12:56:36.540Z,1.12
2022-09-01T12:59:14.258Z,1.30
2022-09-01T13:01:44.627Z,1.40
2022-09-01T13:04:15.318Z,1.02
2022-09-01T13:06:42.363Z,1.30
2022-09-01T13:09:10.224Z,1.42
2022-09-01T13:14:25.857Z,1.00
2022-09-01T13:16:52.860Z,1.50
2022-09-01T13:19:27.383Z,1.25
2022-09-01T13:21:54.917Z,1.60
2022-09-01T13:24:25.786Z,1.60
2022-09-01T13:29:45.217Z,1.60
2022-09-01T13:32:20.941Z,1.83
2022-09-01T13:34:50.726Z,1.62
2022-09-01T13:37:19.409Z,1.52
2022-09-01T13:39:47.402Z,1.70
2022-09-01T13:42:15.972Z,1.80
2022-09-01T13:44:44.122Z,1.40
2022-09-01T13:50:09.712Z,2.17
2022-09-01T13:52:39.259Z,1.77
2022-09-01T13:55:07.598Z,2.05
2022-09-01T13:57:35.757Z,1.92
2022-09-01T14:00:05.865Z,1.90
2022-09-01T14:02:32.805Z,1.83
2022-09-01T14:04:59.784Z,1.87
2022-09-01T14:07:26.781Z,1.90
2022-09-01T14:09:53.706Z,1.73
2022-09-01T14:12:20.679Z,2.08
2022-09-01T14:17:35.560Z,1.50
2022-09-01T14:20:02.897Z,2.10
2022-09-01T14:22:30.617Z,2.05
2022-09-01T14:24:59.449Z,1.67
2022-09-01T14:27:26.453Z,2.67
2022-09-01T14:29:54.823Z,1.92
2022-09-01T14:32:27.294Z,1.92
2022-09-01T14:34:55.113Z,1.90
2022-09-01T14:37:22.272Z,1.92
2022-09-01T14:39:53.484Z,2.08
2022-09-01T14:42:20.802Z,2.03
2022-09-01T14:44:48.254Z,2.00
2022-09-01T14:47:19.053Z,2.17
2022-09-01T14:49:46.945Z,2.12
2022-09-01T14:52:14.510Z,1.87
2022-09-01T14:54:42.716Z,1.90
2022-09-01T14:59:56.867Z,2.40
2022-09-01T15:02:25.495Z,2.20
2022-09-01T15:04:52.628Z,2.03
2022-09-01T15:07:19.627Z,2.50
2022-09-01T15:09:46.557Z,2.28
2022-09-01T15:12:13.557Z,2.40
2022-09-01T15:14:40.546Z,2.70
2022-09-01T15:17:07.973Z,2.55
2022-09-01T15:19:34.965Z,2.50
2022-09-01T15:22:02.011Z,2.62
2022-09-01T15:24:28.960Z,2.53
2022-09-01T15:26:55.904Z,2.60
2022-09-01T15:29:22.842Z,2.47
2022-09-01T15:31:49.929Z,2.80
2022-09-01T15:34:19.122Z,2.58
2022-09-01T15:36:46.120Z,2.83
2022-09-01T15:39:13.151Z,2.85
2022-09-01T15:41:40.280Z,3.15
2022-09-01T15:44:08.082Z,2.72
2022-09-01T15:46:36.520Z,2.80
2022-09-01T15:49:07.029Z,2.55
2022-09-01T15:51:35.382Z,2.70
2022-09-01T15:54:11.964Z,2.60
2022-09-01T15:56:39.094Z,2.53
2022-09-01T15:59:07.792Z,2.70
2022-09-01T16:01:39.103Z,2.55
2022-09-01T16:04:08.140Z,2.90
2022-09-01T16:06:35.525Z,2.53
2022-09-01T16:09:02.470Z,2.45
2022-09-01T16:11:29.414Z,2.80
2022-09-01T16:13:56.535Z,2.30
2022-09-01T16:16:40.070Z,2.95
2022-09-01T16:19:21.995Z,2.78
2022-09-01T16:22:04.045Z,2.50
2022-09-01T16:24:30.954Z,2.40
2022-09-01T16:26:57.949Z,2.50
2022-09-01T16:29:47.859Z,2.70
2022-09-01T16:32:15.890Z,2.60
2022-09-01T16:34:47.313Z,2.53
2022-09-01T16:37:26.272Z,2.42
2022-09-01T16:40:15.057Z,2.70
2022-09-01T16:42:47.154Z,2.80
2022-09-01T16:45:32.910Z,2.37
2022-09-01T16:47:59.752Z,2.22
2022-09-01T16:50:46.049Z,2.65
2022-09-01T16:53:28.615Z,2.70
2022-09-01T16:56:08.387Z,2.83
2022-09-01T16:58:53.870Z,2.70
2022-09-01T17:01:49.755Z,2.30
2022-09-01T17:04:28.483Z,2.30
2022-09-01T17:07:06.224Z,2.70
2022-09-01T17:09:42.034Z,2.72
2022-09-01T17:12:23.489Z,2.70
2022-09-01T17:14:58.479Z,2.80
2022-09-01T17:17:33.815Z,3.08
2022-09-01T17:20:02.219Z,2.50
2022-09-01T17:22:29.265Z,2.70
2022-09-01T17:25:01.119Z,2.55
2022-09-01T17:27:40.220Z,2.65
2022-09-01T17:30:07.774Z,2.65
2022-09-01T17:32:49.857Z,3.25
2022-09-01T17:35:26.276Z,2.67
2022-09-01T17:38:20.399Z,2.40
2022-09-01T17:41:07.075Z,3.03
2022-09-01T17:43:53.320Z,2.70
2022-09-01T17:46:38.701Z,2.65
2022-09-01T17:49:36.533Z,2.90
2022-09-01T17:52:33.984Z,2.80
2022-09-01T17:55:11.829Z,2.70
2022-09-01T17:57:47.591Z,2.40
2022-09-01T18:00:26.900Z,2.92
2022-09-01T18:03:10.003Z,2.47
2022-09-01T18:05:43.828Z,2.40
2022-09-01T18:08:36.599Z,2.37
2022-09-01T18:11:27.976Z,2.95
2022-09-01T18:14:16.448Z,2.50
2022-09-01T18:17:04.108Z,2.40
2022-09-01T18:19:38.115Z,2.60
2022-09-01T18:22:15.530Z,2.60
2022-09-01T18:24:52.253Z,2.60
2022-09-01T18:27:19.239Z,2.33
2022-09-01T18:29:52.175Z,2.30
2022-09-01T18:32:35.077Z,2.33
2022-09-01T18:35:19.969Z,2.47
2022-09-01T18:37:58.652Z,2.10
2022-09-01T18:40:30.462Z,2.10
2022-09-01T18:43:01.826Z,2.28
2022-09-01T18:46:09.282Z,2.10
2022-09-01T18:49:00.077Z,2.40
2022-09-01T18:51:36.028Z,2.60
2022-09-01T18:54:17.077Z,2.17
2022-09-01T18:56:49.340Z,2.33
2022-09-01T18:59:46.573Z,2.40
2022-09-01T19:02:50.208Z,2.30
2022-09-01T19:05:59.895Z,2.50
2022-09-01T19:08:48.764Z,2.33
2022-09-01T19:11:24.491Z,2.58
2022-09-01T19:14:11.260Z,2.50
2022-09-01T19:17:00.106Z,2.53
2022-09-01T19:19:44.388Z,2.25
2022-09-01T19:22:22.094Z,2.12
2022-09-01T19:25:19.632Z,2.20
2022-09-01T19:27:56.502Z,2.35
2022-09-01T19:32:50.857Z,2.37
2022-09-01T19:35:18.954Z,2.50
2022-09-01T19:37:50.713Z,2.60
2022-09-01T19:40:32.583Z,2.30
2022-09-01T19:43:07.379Z,2.70
2022-09-01T19:46:11.850Z,2.20
2022-09-01T19:48:43.317Z,2.10
2022-09-01T19:51:18.052Z,2.40
2022-09-01T19:53:49.116Z,2.30
2022-09-01T19:56:49.662Z,2.37
2022-09-01T19:59:27.341Z,2.80
2022-09-01T20:02:04.838Z,2.40
2022-09-01T20:04:43.910Z,2.22
2022-09-01T20:07:31.500Z,2.20
2022-09-01T20:10:14.963Z,2.10
2022-09-01T20:12:50.431Z,2.58
2022-09-01T20:15:35.807Z,3.03
2022-09-01T20:18:06.922Z,2.40
2022-09-01T20:20:46.772Z,3.00
2022-09-01T20:23:36.889Z,2.65
2022-09-01T20:26:09.672Z,2.40
2022-09-01T20:28:51.961Z,2.62
2022-09-01T20:31:40.914Z,2.95
2022-09-01T20:34:29.460Z,2.53
2022-09-01T20:37:17.441Z,2.50
2022-09-01T20:40:01.500Z,2.45
2022-09-01T20:42:46.986Z,2.40
2022-09-01T20:45:20.506Z,2.70
2022-09-01T20:48:02.039Z,2.45
2022-09-01T20:50:38.822Z,2.50
2022-09-01T20:53:33.224Z,2.60
2022-09-01T20:56:09.829Z,2.67
2022-09-01T20:58:46.882Z,2.45
2022-09-01T21:04:00.291Z,2.62
2022-09-01T21:06:37.712Z,2.30
2022-09-01T21:09:11.714Z,2.67
2022-09-01T21:11:43.418Z,2.50
2022-09-01T21:14:14.181Z,2.15
2022-09-01T21:17:05.568Z,2.42
2022-09-01T21:19:45.285Z,2.58
2022-09-01T21:22:17.486Z,2.72
2022-09-01T21:24:48.147Z,2.87
2022-09-01T21:27:23.805Z,2.67
2022-09-01T21:30:09.833Z,2.55
2022-09-01T21:32:37.611Z,2.17
2022-09-01T21:35:08.616Z,2.40
2022-09-01T21:37:35.781Z,2.60
2022-09-01T21:40:03.011Z,2.33
2022-09-01T21:42:39.464Z,2.60
2022-09-01T21:45:08.052Z,2.17
2022-09-01T21:47:35.002Z,2.40
2022-09-01T21:50:02.297Z,2.25
2022-09-01T21:52:29.242Z,2.28
2022-09-01T21:54:56.178Z,2.55
2022-09-01T21:57:23.277Z,2.60
2022-09-01T21:59:51.683Z,2.75
2022-09-01T22:02:20.240Z,2.00
2022-09-01T22:04:47.597Z,2.35
2022-09-01T22:07:21.166Z,1.90
2022-09-01T22:09:48.346Z,2.25
2022-09-01T22:12:15.368Z,2.58
2022-09-01T22:14:42.395Z,2.40
2022-09-01T22:17:09.544Z,2.28
2022-09-01T22:19:36.753Z,2.28
2022-09-01T22:22:04.656Z,2.15
2022-09-01T22:24:31.781Z,2.37
2022-09-01T22:26:58.805Z,2.30
2022-09-01T22:29:25.742Z,2.05
2022-09-01T22:31:53.097Z,2.53
2022-09-01T22:34:20.268Z,2.25
2022-09-01T22:36:49.229Z,2.22
2022-09-01T22:39:18.154Z,2.47
2022-09-01T22:41:45.546Z,2.15
2022-09-01T22:44:13.569Z,2.20
2022-09-01T22:46:40.720Z,2.00
2022-09-01T22:49:08.480Z,2.12
2022-09-01T22:51:37.864Z,2.10
2022-09-01T22:54:06.404Z,2.35
2022-09-01T22:56:36.075Z,2.25
2022-09-01T22:59:07.214Z,2.00
2022-09-01T23:01:37.230Z,2.12
2022-09-01T23:04:06.423Z,2.30
2022-09-01T23:06:34.534Z,1.92
2022-09-01T23:09:02.668Z,1.90
2022-09-01T23:11:29.980Z,2.00
2022-09-01T23:13:57.081Z,2.00
2022-09-01T23:16:25.116Z,2.10
2022-09-01T23:18:53.495Z,2.10
2022-09-01T23:21:23.498Z,1.85
2022-09-01T23:23:58.230Z,1.92
2022-09-01T23:26:26.688Z,2.35
2022-09-01T23:28:53.709Z,1.90
2022-09-01T23:31:23.429Z,1.80
2022-09-01T23:33:51.358Z,2.40
2022-09-01T23:36:20.615Z,1.90
2022-09-01T23:38:48.706Z,2.00
2022-09-01T23:41:19.695Z,2.03
2022-09-01T23:43:46.608Z,2.05
2022-09-01T23:46:23.419Z,1.90
2022-09-01T23:48:50.872Z,1.75
2022-09-01T23:51:18.895Z,1.90
2022-09-01T23:53:46.599Z,2.05
2022-09-01T23:56:16.250Z,1.67
2022-09-01T23:58:43.701Z,1.85
